createdAt,value
2023-04-18T00:00:33.870Z,89.38
2023-04-18T00:01:34.109Z,89.78
2023-04-18T00:02:33.925Z,90.06
2023-04-18T00:03:34.271Z,90.15
2023-04-18T00:04:34.665Z,90.19
2023-04-18T00:05:33.810Z,90.27
2023-04-18T00:06:33.810Z,90.38
2023-04-18T00:07:33.790Z,90.50
2023-04-18T00:08:33.792Z,90.61
2023-04-18T00:09:33.788Z,90.78
2023-04-18T00:10:33.730Z,91.07
2023-04-18T00:11:33.763Z,91.29
2023-04-18T00:12:34.490Z,91.45
2023-04-18T00:13:33.711Z,91.56
2023-04-18T00:14:33.703Z,91.75
2023-04-18T00:15:33.667Z,91.75
2023-04-18T00:16:33.724Z,91.86
2023-04-18T00:17:33.688Z,91.90
2023-04-18T00:18:33.637Z,92.18
2023-04-18T00:19:33.628Z,92.26
2023-04-18T00:20:33.612Z,92.42
2023-04-18T00:21:33.606Z,92.55
2023-04-18T00:22:33.587Z,92.70
2023-04-18T00:23:33.600Z,92.78
2023-04-18T00:24:33.559Z,93.10
2023-04-18T00:25:33.527Z,93.35
2023-04-18T00:26:33.550Z,93.49
2023-04-18T00:27:33.751Z,93.55
2023-04-18T00:28:33.514Z,93.57
2023-04-18T00:29:33.477Z,93.69
2023-04-18T00:30:33.550Z,93.72
2023-04-18T00:31:33.470Z,93.72
2023-04-18T00:32:34.207Z,93.77
2023-04-18T00:33:34.120Z,94.02
2023-04-18T00:34:34.165Z,94.23
2023-04-18T00:35:33.646Z,94.38
2023-04-18T00:36:33.399Z,94.62
2023-04-18T00:37:33.391Z,94.77
2023-04-18T00:38:33.367Z,94.89
2023-04-18T00:39:33.337Z,94.86
2023-04-18T00:40:34.022Z,94.98
2023-04-18T00:41:33.328Z,95.05
2023-04-18T00:42:33.995Z,95.28
2023-04-18T00:43:33.547Z,95.49
2023-04-18T00:44:33.266Z,95.59
2023-04-18T00:45:33.280Z,95.68
2023-04-18T00:46:33.324Z,95.80
2023-04-18T00:47:33.954Z,95.86
2023-04-18T00:48:33.239Z,95.86
2023-04-18T00:49:33.222Z,95.87
2023-04-18T00:50:33.905Z,95.98
2023-04-18T00:51:33.196Z,96.03
2023-04-18T00:52:33.201Z,96.02
2023-04-18T00:53:33.167Z,96.12
2023-04-18T00:54:33.138Z,96.20
2023-04-18T00:55:33.157Z,96.33
2023-04-18T00:56:33.124Z,96.34
2023-04-18T00:57:33.801Z,96.45
2023-04-18T00:58:33.109Z,96.59
2023-04-18T00:59:33.333Z,96.72
2023-04-18T01:00:33.096Z,96.89
2023-04-18T01:01:33.090Z,97.16
2023-04-18T01:02:33.113Z,97.35
2023-04-18T01:03:33.942Z,97.46
2023-04-18T01:04:33.130Z,97.56
2023-04-18T01:05:33.288Z,97.69
2023-04-18T01:06:33.021Z,97.74
2023-04-18T01:07:32.979Z,97.71
2023-04-18T01:08:32.975Z,97.69
2023-04-18T01:09:33.636Z,97.66
2023-04-18T01:10:32.919Z,97.75
2023-04-18T01:11:32.938Z,97.79
2023-04-18T01:12:32.917Z,97.90
2023-04-18T01:13:32.668Z,98.03
2023-04-18T01:14:32.677Z,98.11
2023-04-18T01:15:32.866Z,98.22
2023-04-18T01:16:32.913Z,98.30
2023-04-18T01:17:32.905Z,98.37
2023-04-18T01:18:32.832Z,98.46
2023-04-18T01:19:32.833Z,98.54
2023-04-18T01:20:32.715Z,98.61
2023-04-18T01:21:32.790Z,98.65
2023-04-18T01:22:33.549Z,98.63
2023-04-18T01:23:32.769Z,98.60
2023-04-18T01:24:32.753Z,98.62
2023-04-18T01:25:32.733Z,98.66
2023-04-18T01:26:32.730Z,98.80
2023-04-18T01:27:32.708Z,98.88
2023-04-18T01:28:32.004Z,98.90
2023-04-18T01:29:32.687Z,98.94
2023-04-18T01:30:32.647Z,98.99
2023-04-18T01:31:32.697Z,98.99
2023-04-18T01:32:32.700Z,98.96
2023-04-18T01:33:32.685Z,98.95
2023-04-18T01:34:32.633Z,99.01
2023-04-18T01:35:32.590Z,99.03
2023-04-18T01:36:32.601Z,99.03
2023-04-18T01:37:32.590Z,98.98
2023-04-18T01:38:32.568Z,98.92
2023-04-18T01:39:32.566Z,98.88
2023-04-18T01:40:32.343Z,98.85
2023-04-18T01:41:32.791Z,98.83
2023-04-18T01:42:32.512Z,98.88
2023-04-18T01:43:32.522Z,98.96
2023-04-18T01:44:32.488Z,99.01
2023-04-18T01:45:32.459Z,99.12
2023-04-18T01:46:33.275Z,99.27
2023-04-18T01:47:32.510Z,99.41
2023-04-18T01:48:32.436Z,99.50
2023-04-18T01:49:32.443Z,99.57
2023-04-18T01:50:33.165Z,99.56
2023-04-18T01:51:32.399Z,99.58
2023-04-18T01:52:32.410Z,99.65
2023-04-18T01:53:33.055Z,99.73
2023-04-18T01:54:32.359Z,99.75
2023-04-18T01:55:32.598Z,99.75
2023-04-18T01:56:33.012Z,99.71
2023-04-18T01:57:32.330Z,99.66
2023-04-18T01:58:32.311Z,99.56
2023-04-18T01:59:32.285Z,99.50
2023-04-18T02:00:32.281Z,99.39
2023-04-18T02:01:32.944Z,99.33
2023-04-18T02:02:32.378Z,99.31
2023-04-18T02:03:32.660Z,99.32
2023-04-18T02:04:32.220Z,99.36
2023-04-18T02:05:32.193Z,99.39
2023-04-18T02:06:32.198Z,99.43
2023-04-18T02:07:32.906Z,99.48
2023-04-18T02:08:32.219Z,99.53
2023-04-18T02:09:32.202Z,99.59
2023-04-18T02:10:32.114Z,99.68
2023-04-18T02:11:32.172Z,99.77
2023-04-18T02:12:32.140Z,99.84
2023-04-18T02:13:32.787Z,99.87
2023-04-18T02:14:32.094Z,99.93
2023-04-18T02:15:32.781Z,99.96
2023-04-18T02:16:32.792Z,99.99
2023-04-18T02:17:32.122Z,100.00
2023-04-18T02:18:32.050Z,100.00
2023-04-18T02:19:32.262Z,100.00
2023-04-18T02:20:32.005Z,100.00
2023-04-18T02:21:31.997Z,100.00
2023-04-18T02:22:31.982Z,100.00
2023-04-18T02:23:31.981Z,100.00
2023-04-18T02:24:32.089Z,100.00
2023-04-18T02:25:31.921Z,100.00
2023-04-18T02:26:31.946Z,100.00
2023-04-18T02:27:31.922Z,100.00
2023-04-18T02:28:31.909Z,100.00
2023-04-18T02:29:31.912Z,100.00
2023-04-18T02:30:31.856Z,100.00
2023-04-18T02:31:31.909Z,100.00
2023-04-18T02:32:31.586Z,100.00
2023-04-18T02:33:31.840Z,100.00
2023-04-18T02:34:31.821Z,100.00
2023-04-18T02:35:31.787Z,100.00
2023-04-18T02:36:31.570Z,100.00
2023-04-18T02:37:31.783Z,100.00
2023-04-18T02:38:31.772Z,100.00
2023-04-18T02:39:31.770Z,100.00
2023-04-18T02:40:31.560Z,100.00
2023-04-18T02:41:31.728Z,100.00
2023-04-18T02:42:31.722Z,100.00
2023-04-18T02:43:31.753Z,100.00
2023-04-18T02:44:31.695Z,100.00
2023-04-18T02:45:31.706Z,100.00
2023-04-18T02:46:31.656Z,100.00
2023-04-18T02:47:35.386Z,100.00
2023-04-18T02:48:32.684Z,100.00
2023-04-18T02:49:31.625Z,100.00
2023-04-18T02:50:31.616Z,100.00
2023-04-18T02:51:31.614Z,100.00
2023-04-18T02:52:32.298Z,100.00
2023-04-18T02:53:31.591Z,100.00
2023-04-18T02:54:32.288Z,100.00
2023-04-18T02:55:31.536Z,100.00
2023-04-18T02:56:32.268Z,100.00
2023-04-18T02:57:31.523Z,100.00
2023-04-18T02:58:31.502Z,100.00
2023-04-18T02:59:31.498Z,100.00
2023-04-18T03:00:31.516Z,100.00
2023-04-18T03:01:31.447Z,100.00
2023-04-18T03:02:31.562Z,100.00
2023-04-18T03:03:32.144Z,100.00
2023-04-18T03:04:31.671Z,100.00
2023-04-18T03:05:32.074Z,100.00
2023-04-18T03:06:31.410Z,100.00
2023-04-18T03:07:31.415Z,100.00
2023-04-18T03:08:31.416Z,100.00
2023-04-18T03:09:31.352Z,100.00
2023-04-18T03:10:31.356Z,100.00
2023-04-18T03:11:31.301Z,100.00
2023-04-18T03:12:31.315Z,100.00
2023-04-18T03:13:31.314Z,100.00
2023-04-18T03:14:31.290Z,100.00
2023-04-18T03:15:32.033Z,100.00
2023-04-18T03:16:31.941Z,100.00
2023-04-18T03:17:31.287Z,100.00
2023-04-18T03:18:31.248Z,100.00
2023-04-18T03:19:31.239Z,100.00
2023-04-18T03:20:31.180Z,100.00
2023-04-18T03:21:31.185Z,100.00
2023-04-18T03:22:31.187Z,100.00
2023-04-18T03:23:31.217Z,100.00
2023-04-18T03:24:31.147Z,100.00
2023-04-18T03:25:31.131Z,100.00
2023-04-18T03:26:31.796Z,100.00
2023-04-18T03:27:31.110Z,100.00
2023-04-18T03:28:31.112Z,100.00
2023-04-18T03:29:31.763Z,100.00
2023-04-18T03:30:31.056Z,100.00
2023-04-18T03:31:31.152Z,100.00
2023-04-18T03:32:31.090Z,100.00
2023-04-18T03:33:31.051Z,100.00
2023-04-18T03:34:30.791Z,99.84
2023-04-18T03:35:30.788Z,99.55
2023-04-18T03:36:30.785Z,99.26
2023-04-18T03:37:30.978Z,99.04
2023-04-18T03:38:30.958Z,98.86
2023-04-18T03:39:30.962Z,98.74
2023-04-18T03:40:30.793Z,98.70
2023-04-18T03:41:30.898Z,98.70
2023-04-18T03:42:30.928Z,98.80
2023-04-18T03:43:30.794Z,98.84
2023-04-18T03:44:30.611Z,98.90
2023-04-18T03:45:30.806Z,98.93
2023-04-18T03:46:30.856Z,98.94
2023-04-18T03:47:30.856Z,98.85
2023-04-18T03:48:30.804Z,98.68
2023-04-18T03:49:30.855Z,98.50
2023-04-18T03:50:31.524Z,98.34
2023-04-18T03:51:30.072Z,98.15
2023-04-18T03:52:30.098Z,98.00
2023-04-18T03:53:30.764Z,97.89
2023-04-18T03:54:30.769Z,97.85
2023-04-18T03:55:31.433Z,97.76
2023-04-18T03:56:31.420Z,97.71
2023-04-18T03:57:30.712Z,97.60
2023-04-18T03:58:31.373Z,97.50
2023-04-18T03:59:30.695Z,97.38
2023-04-18T04:00:31.340Z,97.18
2023-04-18T04:01:30.977Z,96.96
2023-04-18T04:02:30.750Z,96.88
2023-04-18T04:03:30.721Z,96.78
2023-04-18T04:04:30.641Z,96.61
2023-04-18T04:05:30.612Z,96.52
2023-04-18T04:06:30.563Z,96.43
2023-04-18T04:07:31.249Z,96.44
2023-04-18T04:08:30.579Z,96.46
2023-04-18T04:09:30.556Z,96.40
2023-04-18T04:10:30.517Z,96.27
2023-04-18T04:11:30.531Z,95.94
2023-04-18T04:12:30.515Z,95.65
2023-04-18T04:13:30.499Z,95.44
2023-04-18T04:14:30.492Z,95.35
2023-04-18T04:15:30.447Z,95.24
2023-04-18T04:16:30.533Z,95.22
2023-04-18T04:17:30.494Z,95.14
2023-04-18T04:18:30.433Z,95.09
2023-04-18T04:19:30.475Z,95.09
2023-04-18T04:20:30.448Z,94.99
2023-04-18T04:21:30.391Z,94.93
2023-04-18T04:22:30.415Z,95.02
2023-04-18T04:23:31.056Z,95.09
2023-04-18T04:24:30.357Z,95.08
2023-04-18T04:25:30.327Z,95.04
2023-04-18T04:26:30.327Z,94.99
2023-04-18T04:27:30.321Z,95.03
2023-04-18T04:28:30.291Z,95.03
2023-04-18T04:29:30.301Z,95.09
2023-04-18T04:30:30.985Z,95.10
2023-04-18T04:31:30.256Z,94.91
2023-04-18T04:32:30.315Z,94.40
2023-04-18T04:33:30.899Z,94.02
2023-04-18T04:34:30.901Z,93.70
2023-04-18T04:35:30.203Z,93.68
2023-04-18T04:36:30.167Z,93.50
2023-04-18T04:37:30.204Z,93.38
2023-04-18T04:38:30.159Z,93.30
2023-04-18T04:39:30.154Z,93.30
2023-04-18T04:40:30.153Z,93.13
2023-04-18T04:41:30.211Z,93.17
2023-04-18T04:42:30.804Z,92.94
2023-04-18T04:43:30.113Z,92.69
2023-04-18T04:44:30.786Z,92.42
2023-04-18T04:45:30.190Z,92.31
2023-04-18T04:46:30.790Z,92.12
2023-04-18T04:47:30.110Z,91.88
2023-04-18T04:48:30.728Z,91.73
2023-04-18T04:49:30.025Z,91.50
2023-04-18T04:50:29.999Z,91.18
2023-04-18T04:51:29.966Z,90.90
2023-04-18T04:52:29.969Z,90.79
2023-04-18T04:53:29.957Z,90.81
2023-04-18T04:54:29.953Z,90.63
2023-04-18T04:55:29.688Z,90.37
2023-04-18T04:56:29.882Z,90.10
2023-04-18T04:57:29.682Z,89.83
2023-04-18T04:58:29.893Z,89.62
2023-04-18T04:59:29.890Z,89.45
2023-04-18T05:00:29.865Z,89.32
2023-04-18T05:01:29.883Z,88.99
2023-04-18T05:02:30.798Z,89.06
2023-04-18T05:03:29.908Z,88.92
2023-04-18T05:04:29.952Z,88.66
2023-04-18T05:05:29.805Z,88.36
2023-04-18T05:06:29.768Z,88.20
2023-04-18T05:07:30.463Z,88.01
2023-04-18T05:08:29.759Z,88.10
2023-04-18T05:09:29.735Z,88.07
2023-04-18T05:10:30.534Z,87.95
2023-04-18T05:11:29.704Z,87.85
2023-04-18T05:12:30.695Z,87.76
2023-04-18T05:13:30.417Z,87.85
2023-04-18T05:14:30.402Z,87.84
2023-04-18T05:15:29.671Z,87.77
2023-04-18T05:16:30.443Z,87.70
2023-04-18T05:17:29.693Z,87.69
2023-04-18T05:18:29.639Z,87.82
2023-04-18T05:19:29.605Z,87.99
2023-04-18T05:20:29.620Z,88.10
2023-04-18T05:21:29.603Z,88.04
2023-04-18T05:22:30.252Z,87.95
2023-04-18T05:23:30.244Z,87.99
2023-04-18T05:24:30.227Z,88.09
2023-04-18T05:25:29.501Z,88.18
2023-04-18T05:26:29.510Z,88.04
2023-04-18T05:27:28.768Z,88.18
2023-04-18T05:28:29.489Z,88.13
2023-04-18T05:29:30.160Z,88.01
2023-04-18T05:30:30.170Z,87.95
2023-04-18T05:31:29.556Z,88.01
2023-04-18T05:32:29.677Z,87.93
2023-04-18T05:33:30.092Z,87.96
2023-04-18T05:34:30.076Z,87.97
2023-04-18T05:35:28.692Z,87.86
2023-04-18T05:36:29.378Z,87.86
2023-04-18T05:37:29.385Z,87.73
2023-04-18T05:38:29.349Z,87.63
2023-04-18T05:39:29.351Z,87.63
2023-04-18T05:40:29.320Z,87.52
2023-04-18T05:41:29.321Z,87.42
2023-04-18T05:42:29.301Z,87.21
2023-04-18T05:43:29.299Z,86.89
2023-04-18T05:44:29.273Z,86.68
2023-04-18T05:45:29.232Z,86.71
2023-04-18T05:46:29.499Z,86.22
2023-04-18T05:47:29.252Z,86.29
2023-04-18T05:48:29.226Z,86.28
2023-04-18T05:49:29.205Z,85.99
2023-04-18T05:50:29.163Z,85.94
2023-04-18T05:51:28.916Z,85.94
2023-04-18T05:52:29.181Z,85.94
2023-04-18T05:53:29.197Z,86.19
2023-04-18T05:54:28.898Z,86.44
2023-04-18T05:55:28.906Z,86.58
2023-04-18T05:56:28.901Z,86.71
2023-04-18T05:57:29.094Z,86.66
2023-04-18T05:58:29.099Z,86.76
2023-04-18T05:59:28.917Z,86.60
2023-04-18T06:00:29.034Z,86.58
2023-04-18T06:01:29.050Z,86.49
2023-04-18T06:02:29.169Z,86.44
2023-04-18T06:03:29.272Z,86.50
2023-04-18T06:04:29.010Z,86.54
2023-04-18T06:05:29.271Z,86.49
2023-04-18T06:06:28.993Z,86.45
2023-04-18T06:07:28.918Z,86.49
2023-04-18T06:08:28.958Z,86.44
2023-04-18T06:09:28.935Z,86.41
2023-04-18T06:10:29.935Z,86.31
2023-04-18T06:11:29.654Z,86.03
2023-04-18T06:12:28.895Z,85.85
2023-04-18T06:13:28.903Z,85.91
2023-04-18T06:14:28.872Z,85.83
2023-04-18T06:15:28.182Z,85.40
2023-04-18T06:16:28.882Z,85.39
2023-04-18T06:17:28.839Z,85.38
2023-04-18T06:18:28.810Z,85.02
2023-04-18T06:19:28.819Z,84.91
2023-04-18T06:20:28.784Z,84.85
2023-04-18T06:21:28.752Z,84.69
2023-04-18T06:22:28.777Z,84.57
2023-04-18T06:23:28.416Z,84.55
2023-04-18T06:24:30.160Z,84.35
2023-04-18T06:25:28.761Z,84.25
2023-04-18T06:26:28.495Z,84.15
2023-04-18T06:27:31.514Z,84.11
2023-04-18T06:28:28.695Z,84.01
2023-04-18T06:29:29.339Z,84.07
2023-04-18T06:30:29.338Z,83.91
2023-04-18T06:31:27.998Z,83.84
2023-04-18T06:32:28.641Z,83.82
2023-04-18T06:33:28.615Z,83.67
2023-04-18T06:34:28.607Z,83.62
2023-04-18T06:35:28.580Z,83.59
2023-04-18T06:36:28.547Z,83.45
2023-04-18T06:37:29.292Z,83.42
2023-04-18T06:38:28.542Z,83.46
2023-04-18T06:39:28.539Z,83.30
2023-04-18T06:40:28.530Z,83.11
2023-04-18T06:41:28.482Z,83.13
2023-04-18T06:42:29.189Z,83.14
2023-04-18T06:43:28.471Z,82.87
2023-04-18T06:44:29.164Z,82.43
2023-04-18T06:45:28.516Z,82.19
2023-04-18T06:46:29.367Z,81.88
2023-04-18T06:47:27.728Z,81.54
2023-04-18T06:48:28.431Z,81.56
2023-04-18T06:49:28.387Z,80.96
2023-04-18T06:50:28.401Z,80.89
2023-04-18T06:51:28.360Z,80.93
2023-04-18T06:52:28.351Z,80.67
2023-04-18T06:53:28.232Z,80.38
2023-04-18T06:54:28.341Z,80.23
2023-04-18T06:55:27.585Z,80.15
2023-04-18T06:56:28.270Z,80.14
2023-04-18T06:57:28.318Z,80.12
2023-04-18T06:58:28.270Z,79.95
2023-04-18T06:59:28.250Z,79.94
2023-04-18T07:00:29.005Z,79.80
2023-04-18T07:01:28.221Z,79.71
2023-04-18T07:02:28.346Z,79.97
2023-04-18T07:03:27.664Z,80.42
2023-04-18T07:04:28.977Z,80.63
2023-04-18T07:05:28.177Z,80.99
2023-04-18T07:06:28.163Z,81.07
2023-04-18T07:07:28.131Z,81.31
2023-04-18T07:08:28.129Z,81.12
2023-04-18T07:09:28.784Z,81.25
2023-04-18T07:10:28.107Z,81.01
2023-04-18T07:11:27.388Z,80.93
2023-04-18T07:12:28.117Z,80.92
2023-04-18T07:13:28.058Z,80.88
2023-04-18T07:14:28.052Z,81.04
2023-04-18T07:15:28.033Z,80.80
2023-04-18T07:16:28.052Z,80.84
2023-04-18T07:17:27.832Z,80.42
2023-04-18T07:18:37.441Z,80.33
2023-04-18T07:19:28.964Z,80.16
2023-04-18T07:20:27.981Z,80.50
2023-04-18T07:21:28.627Z,79.60
2023-04-18T07:22:27.915Z,78.53
2023-04-18T07:23:27.928Z,78.48
2023-04-18T07:24:27.925Z,77.71
2023-04-18T07:25:28.588Z,77.24
2023-04-18T07:26:27.886Z,77.19
2023-04-18T07:27:27.844Z,75.66
2023-04-18T07:28:27.883Z,75.18
2023-04-18T07:29:27.889Z,75.43
2023-04-18T07:30:27.846Z,75.44
2023-04-18T07:31:28.778Z,75.14
2023-04-18T07:32:27.841Z,74.96
2023-04-18T07:33:29.247Z,74.94
2023-04-18T07:34:28.500Z,75.04
2023-04-18T07:35:28.526Z,75.49
2023-04-18T07:36:28.443Z,76.04
2023-04-18T07:37:27.738Z,75.89
2023-04-18T07:38:27.717Z,75.96
2023-04-18T07:39:27.719Z,75.87
2023-04-18T07:40:28.366Z,76.05
2023-04-18T07:41:27.661Z,76.09
2023-04-18T07:42:27.702Z,75.88
2023-04-18T07:43:27.659Z,76.05
2023-04-18T07:44:27.646Z,76.03
2023-04-18T07:45:27.724Z,75.50
2023-04-18T07:46:27.660Z,75.36
2023-04-18T07:47:29.967Z,74.80
2023-04-18T07:48:27.616Z,74.64
2023-04-18T07:49:27.570Z,74.65
2023-04-18T07:50:27.572Z,73.97
2023-04-18T07:51:27.536Z,72.77
2023-04-18T07:52:27.536Z,71.87
2023-04-18T07:53:27.527Z,71.07
2023-04-18T07:54:27.514Z,70.01
2023-04-18T07:55:27.513Z,69.53
2023-04-18T07:56:27.481Z,69.21
2023-04-18T07:57:27.438Z,69.22
2023-04-18T07:58:27.008Z,69.27
2023-04-18T07:59:27.481Z,69.99
2023-04-18T08:00:27.488Z,69.79
2023-04-18T08:01:27.098Z,69.43
2023-04-18T08:02:27.464Z,69.60
2023-04-18T08:03:28.343Z,69.82
2023-04-18T08:04:29.977Z,69.86
2023-04-18T08:05:27.384Z,69.37
2023-04-18T08:06:27.947Z,69.17
2023-04-18T08:07:27.306Z,69.19
2023-04-18T08:08:27.326Z,69.34
2023-04-18T08:09:27.323Z,68.52
2023-04-18T08:10:27.115Z,68.20
2023-04-18T08:11:27.278Z,67.04
2023-04-18T08:12:27.240Z,66.63
2023-04-18T08:13:27.022Z,66.78
2023-04-18T08:14:27.033Z,67.31
2023-04-18T08:15:27.223Z,67.97
2023-04-18T08:16:27.305Z,68.24
2023-04-18T08:17:27.229Z,67.93
2023-04-18T08:18:27.204Z,67.04
2023-04-18T08:19:27.203Z,66.36
2023-04-18T08:20:27.227Z,65.94
2023-04-18T08:21:27.030Z,65.06
2023-04-18T08:22:27.023Z,65.51
2023-04-18T08:23:27.020Z,66.00
2023-04-18T08:24:26.528Z,66.19
2023-04-18T08:25:27.802Z,65.57
2023-04-18T08:26:27.083Z,65.95
2023-04-18T08:27:27.028Z,64.65
2023-04-18T08:28:27.056Z,65.87
2023-04-18T08:29:27.039Z,67.32
2023-04-18T08:30:27.737Z,68.82
2023-04-18T08:31:27.077Z,70.10
2023-04-18T08:32:27.045Z,71.82
2023-04-18T08:33:27.708Z,72.70
2023-04-18T08:34:26.972Z,73.68
2023-04-18T08:35:26.961Z,74.46
2023-04-18T08:36:27.016Z,74.44
2023-04-18T08:37:27.621Z,74.80
2023-04-18T08:38:27.012Z,75.05
2023-04-18T08:39:27.007Z,75.44
2023-04-18T08:40:26.922Z,75.50
2023-04-18T08:41:26.862Z,75.76
2023-04-18T08:42:26.849Z,75.59
2023-04-18T08:43:26.845Z,76.14
2023-04-18T08:44:26.867Z,75.92
2023-04-18T08:45:26.829Z,75.68
2023-04-18T08:46:26.970Z,75.21
2023-04-18T08:47:26.789Z,75.05
2023-04-18T08:48:26.774Z,74.92
2023-04-18T08:49:27.438Z,74.79
2023-04-18T08:50:26.742Z,74.50
2023-04-18T08:51:26.766Z,74.22
2023-04-18T08:52:26.687Z,74.41
2023-04-18T08:53:26.726Z,74.47
2023-04-18T08:54:27.335Z,74.54
2023-04-18T08:55:26.667Z,74.60
2023-04-18T08:56:26.660Z,74.88
2023-04-18T08:57:27.425Z,75.14
2023-04-18T08:58:26.627Z,75.63
2023-04-18T08:59:26.616Z,75.62
2023-04-18T09:00:26.594Z,75.85
2023-04-18T09:01:26.614Z,75.43
2023-04-18T09:02:26.647Z,75.60
2023-04-18T09:03:26.620Z,75.69
2023-04-18T09:04:26.570Z,75.79
2023-04-18T09:05:26.535Z,75.00
2023-04-18T09:06:27.778Z,75.02
2023-04-18T09:07:26.473Z,74.93
2023-04-18T09:08:26.486Z,75.17
2023-04-18T09:09:26.486Z,75.39
2023-04-18T09:10:26.476Z,75.32
2023-04-18T09:11:27.122Z,75.39
2023-04-18T09:12:27.116Z,75.92
2023-04-18T09:13:26.419Z,75.89
2023-04-18T09:14:26.409Z,76.10
2023-04-18T09:15:26.395Z,76.80
2023-04-18T09:16:26.437Z,76.70
2023-04-18T09:17:26.386Z,76.64
2023-04-18T09:18:26.379Z,76.64
2023-04-18T09:19:26.349Z,77.00
2023-04-18T09:20:26.370Z,77.22
2023-04-18T09:21:26.364Z,77.23
2023-04-18T09:22:26.999Z,77.23
2023-04-18T09:23:26.292Z,77.17
2023-04-18T09:24:26.955Z,76.82
2023-04-18T09:25:26.972Z,76.53
2023-04-18T09:26:26.292Z,76.10
2023-04-18T09:27:26.230Z,76.13
2023-04-18T09:28:26.198Z,76.14
2023-04-18T09:29:26.218Z,76.24
2023-04-18T09:30:26.198Z,76.27
2023-04-18T09:31:26.296Z,76.67
2023-04-18T09:32:26.190Z,76.83
2023-04-18T09:33:26.134Z,76.96
2023-04-18T09:34:25.913Z,77.36
2023-04-18T09:35:25.902Z,77.32
2023-04-18T09:36:26.149Z,77.45
2023-04-18T09:37:26.118Z,77.62
2023-04-18T09:38:26.072Z,77.51
2023-04-18T09:39:26.082Z,77.38
2023-04-18T09:40:26.077Z,77.08
2023-04-18T09:41:26.043Z,76.82
2023-04-18T09:42:28.690Z,75.78
2023-04-18T09:43:26.023Z,75.36
2023-04-18T09:44:26.014Z,75.15
2023-04-18T09:45:26.739Z,74.86
2023-04-18T09:46:26.005Z,74.52
2023-04-18T09:47:25.969Z,74.53
2023-04-18T09:48:25.961Z,75.29
2023-04-18T09:49:26.952Z,75.99
2023-04-18T09:50:26.637Z,76.18
2023-04-18T09:51:26.637Z,76.71
2023-04-18T09:52:26.636Z,77.00
2023-04-18T09:53:26.613Z,77.33
2023-04-18T09:54:26.589Z,77.84
2023-04-18T09:55:25.854Z,78.11
2023-04-18T09:56:26.532Z,78.44
2023-04-18T09:57:26.581Z,78.74
2023-04-18T09:58:25.106Z,78.80
2023-04-18T09:59:25.793Z,78.82
2023-04-18T10:00:25.785Z,78.70
2023-04-18T10:01:25.524Z,78.86
2023-04-18T10:02:25.853Z,79.14
2023-04-18T10:03:25.808Z,79.04
2023-04-18T10:04:25.806Z,78.99
2023-04-18T10:05:25.769Z,78.86
2023-04-18T10:06:25.697Z,78.81
2023-04-18T10:07:25.673Z,78.75
2023-04-18T10:08:25.678Z,78.61
2023-04-18T10:09:25.705Z,78.42
2023-04-18T10:10:25.636Z,78.44
2023-04-18T10:11:25.695Z,78.63
2023-04-18T10:12:26.320Z,78.49
2023-04-18T10:13:25.576Z,78.53
2023-04-18T10:14:27.380Z,78.35
2023-04-18T10:15:26.265Z,78.22
2023-04-18T10:16:25.609Z,78.38
2023-04-18T10:17:28.060Z,78.29
2023-04-18T10:18:25.533Z,77.64
2023-04-18T10:19:25.522Z,77.46
2023-04-18T10:20:25.503Z,76.79
2023-04-18T10:21:25.489Z,76.77
2023-04-18T10:22:25.481Z,76.62
2023-04-18T10:23:27.038Z,76.42
2023-04-18T10:24:25.456Z,76.54
2023-04-18T10:25:25.454Z,76.61
2023-04-18T10:26:25.429Z,76.79
2023-04-18T10:27:25.434Z,75.96
2023-04-18T10:28:25.379Z,75.42
2023-04-18T10:29:25.402Z,74.62
2023-04-18T10:30:25.168Z,74.15
2023-04-18T10:31:25.175Z,74.62
2023-04-18T10:32:25.170Z,74.64
2023-04-18T10:33:31.014Z,74.69
2023-04-18T10:34:26.326Z,73.96
2023-04-18T10:35:25.317Z,74.13
2023-04-18T10:36:25.312Z,74.32
2023-04-18T10:37:25.274Z,74.41
2023-04-18T10:38:25.246Z,74.91
2023-04-18T10:39:25.253Z,75.54
2023-04-18T10:40:25.228Z,75.88
2023-04-18T10:41:25.254Z,76.36
2023-04-18T10:42:25.218Z,76.21
2023-04-18T10:43:25.181Z,76.33
2023-04-18T10:44:25.194Z,76.73
2023-04-18T10:45:25.183Z,76.44
2023-04-18T10:46:32.338Z,76.49
2023-04-18T10:47:26.218Z,77.05
2023-04-18T10:48:25.130Z,76.75
2023-04-18T10:49:27.322Z,76.72
2023-04-18T10:50:25.771Z,76.99
2023-04-18T10:51:26.037Z,76.90
2023-04-18T10:52:25.797Z,76.08
2023-04-18T10:53:25.799Z,74.96
2023-04-18T10:54:25.772Z,74.43
2023-04-18T10:55:25.757Z,73.56
2023-04-18T10:56:25.014Z,72.57
2023-04-18T10:57:25.009Z,71.68
2023-04-18T10:58:24.959Z,71.28
2023-04-18T10:59:24.979Z,70.81
2023-04-18T11:00:24.978Z,71.09
2023-04-18T11:01:24.358Z,71.08
2023-04-18T11:02:24.545Z,70.58
2023-04-18T11:03:24.940Z,70.91
2023-04-18T11:04:24.973Z,71.19
2023-04-18T11:05:25.642Z,71.68
2023-04-18T11:06:24.892Z,72.06
2023-04-18T11:07:24.873Z,71.71
2023-04-18T11:08:24.832Z,71.55
2023-04-18T11:09:25.527Z,70.91
2023-04-18T11:10:24.831Z,70.65
2023-04-18T11:11:24.809Z,70.42
2023-04-18T11:12:24.848Z,70.85
2023-04-18T11:13:24.770Z,70.96
2023-04-18T11:14:24.757Z,71.49
2023-04-18T11:15:24.753Z,72.09
2023-04-18T11:16:25.519Z,72.69
2023-04-18T11:17:24.809Z,73.41
2023-04-18T11:18:23.992Z,73.73
2023-04-18T11:19:24.708Z,73.82
2023-04-18T11:20:24.683Z,73.72
2023-04-18T11:21:25.343Z,73.04
2023-04-18T11:22:24.664Z,73.34
2023-04-18T11:23:24.638Z,74.01
2023-04-18T11:24:24.688Z,74.34
2023-04-18T11:25:24.638Z,74.49
2023-04-18T11:26:24.652Z,74.79
2023-04-18T11:27:24.602Z,74.84
2023-04-18T11:28:24.577Z,75.30
2023-04-18T11:29:24.574Z,75.15
2023-04-18T11:30:24.557Z,74.64
2023-04-18T11:31:24.607Z,74.34
2023-04-18T11:32:24.802Z,74.86
2023-04-18T11:33:24.534Z,74.96
2023-04-18T11:34:24.014Z,75.52
2023-04-18T11:35:24.495Z,76.04
2023-04-18T11:36:24.481Z,75.82
2023-04-18T11:37:24.452Z,75.68
2023-04-18T11:38:24.413Z,75.65
2023-04-18T11:39:24.472Z,76.19
2023-04-18T11:40:25.086Z,76.33
2023-04-18T11:41:24.388Z,76.57
2023-04-18T11:42:24.008Z,76.48
2023-04-18T11:43:24.353Z,76.48
2023-04-18T11:44:24.349Z,76.76
2023-04-18T11:45:24.373Z,76.92
2023-04-18T11:46:24.376Z,77.20
2023-04-18T11:47:24.339Z,77.21
2023-04-18T11:48:24.274Z,77.49
2023-04-18T11:49:24.287Z,77.17
2023-04-18T11:50:23.818Z,77.02
2023-04-18T11:51:24.250Z,77.08
2023-04-18T11:52:24.245Z,77.03
2023-04-18T11:53:24.209Z,76.60
2023-04-18T11:54:24.214Z,76.05
2023-04-18T11:55:24.262Z,76.22
2023-04-18T11:56:23.967Z,76.30
2023-04-18T11:57:24.167Z,76.22
2023-04-18T11:58:24.038Z,76.11
2023-04-18T11:59:24.384Z,76.27
2023-04-18T12:00:24.132Z,76.29
2023-04-18T12:01:24.137Z,76.39
2023-04-18T12:02:24.870Z,76.31
2023-04-18T12:03:24.212Z,75.71
2023-04-18T12:04:24.260Z,75.46
2023-04-18T12:05:25.015Z,75.44
2023-04-18T12:06:25.175Z,75.51
2023-04-18T12:07:24.773Z,75.86
2023-04-18T12:08:24.758Z,76.33
2023-04-18T12:09:24.754Z,75.90
2023-04-18T12:10:24.028Z,76.12
2023-04-18T12:11:24.727Z,75.89
2023-04-18T12:12:23.978Z,76.11
2023-04-18T12:13:23.942Z,75.89
2023-04-18T12:14:23.946Z,76.14
2023-04-18T12:15:23.486Z,76.54
2023-04-18T12:16:23.958Z,76.48
2023-04-18T12:17:24.000Z,76.93
2023-04-18T12:18:23.861Z,76.85
2023-04-18T12:19:23.884Z,76.89
2023-04-18T12:20:23.861Z,77.46
2023-04-18T12:21:23.840Z,77.23
2023-04-18T12:22:23.836Z,76.73
2023-04-18T12:23:23.789Z,76.52
2023-04-18T12:24:25.061Z,76.87
2023-04-18T12:25:26.933Z,76.75
2023-04-18T12:26:23.475Z,76.03
2023-04-18T12:27:23.757Z,75.64
2023-04-18T12:28:23.736Z,74.93
2023-04-18T12:29:24.415Z,74.39
2023-04-18T12:30:23.725Z,74.14
2023-04-18T12:31:23.861Z,73.37
2023-04-18T12:32:23.716Z,72.87
2023-04-18T12:33:23.666Z,72.33
2023-04-18T12:34:23.689Z,72.52
2023-04-18T12:35:23.646Z,71.83
2023-04-18T12:36:23.636Z,71.93
2023-04-18T12:37:24.348Z,71.32
2023-04-18T12:38:23.744Z,71.02
2023-04-18T12:39:24.268Z,70.34
2023-04-18T12:40:23.586Z,70.33
2023-04-18T12:41:23.628Z,70.26
2023-04-18T12:42:23.562Z,69.76
2023-04-18T12:43:23.546Z,69.43
2023-04-18T12:44:23.522Z,69.35
2023-04-18T12:45:24.209Z,69.52
2023-04-18T12:46:23.513Z,69.45
2023-04-18T12:47:24.193Z,69.54
2023-04-18T12:48:23.251Z,70.03
2023-04-18T12:49:23.248Z,70.17
2023-04-18T12:50:23.238Z,70.50